Aeroporto :
LOGIN :

Iscrizione | Disclaimer

   EN    FR    IT 

 










Sommario :    VFR   VFR Marginale   IFR   IFR Intensivo   IFR Molto Intensivo
Visibilità : 
Base nubi : 
>= 8 km
>= 3000ft
5 / 8 km
1000 / 3000 ft
1500m / 5 km
500 / 1000 ft
800 / 1500m
200 / 500 ft
< 800m
< 200 ft
Simboli :   Temporali  Nebbia  Neve Forte  Precipitazioni Forti  Vento > 20 kt
SIGMETs :   Varie  Temporali  Ghiacco  Turbolenza  Onda orograficha  Ceneri Vulcaniche






- Altitudine del aeroporto : -11 ft
- Codice IATA : AMS


EHAM - Amsterdam Schiphol

ULTIMO METAR :
  • 150925Z 24021G33KT 9999 FEW033 08/03 Q0995 NOSIG

METARs OBSOLETI :
  • 150855Z 23021G31KT 9999 FEW033 08/03 Q0994 NOSIG
  • 150825Z 25021G34KT 220V280 9999 FEW033 08/02 Q0993 NOSIG
  • 150755Z 24023G33KT 210V270 9999 FEW030 08/02 Q0992 NOSIG
  • 150725Z 24022G37KT 220V280 9999 FEW030 08/03 Q0992 NOSIG
  • 150655Z 25020G30KT 9999 FEW030 08/03 Q0991 TEMPO 25025G37KT

TAF TAF EHAM
Valido dal 15 a 06 ore il 16 a 12 ore UTC


150516Z 1506/1612 24022G35KT 9999 FEW025
TEMPO 1506/1508 25025G41KT -SHRA FEW025CB
BECMG 1509/1512 23020G30KT
PROB40
TEMPO 1513/1521 23022G35KT 4500 SHRA TSRAGS SCT015 SCT020CB
BECMG 1519/1522 20013KT



MetMap, La meteo Aeronautica in un colpo d'occhio ! - Copyright ORBIFLY Dicembre 2007 - Disclaimer

ORBIFLY MET'MAP TEAM :

Programmazione e sviluppo : Alexandra Zaïnal
Concezione : Baudouin d'Aumeries
Aiuto per la programmazione : Marc-Olivier Méhu
Supporto tecnico e logistico : Manuel Goepfert
Aiuto per la traduzione : Arnaldo La Scala

Contatto : metmap@orbifly.com




FONTI E CREDITI :

   NOAA